createdAt,value
2019-02-14T04:28:42.437Z,12.17
2019-02-14T04:31:24.190Z,16.70
2019-02-14T04:34:06.207Z,13.77
2019-02-14T04:36:48.365Z,16.10
2019-02-14T04:39:30.270Z,13.63
2019-02-14T04:42:12.189Z,13.60
2019-02-14T04:44:54.290Z,14.07
2019-02-14T04:47:36.700Z,16.00
2019-02-14T04:50:19.544Z,12.13
2019-02-14T04:53:01.321Z,12.40
2019-02-14T04:55:43.433Z,13.00
2019-02-14T04:58:25.305Z,14.87
2019-02-14T05:01:07.125Z,13.77
2019-02-14T05:03:49.198Z,13.73
2019-02-14T05:06:31.338Z,14.40
2019-02-14T05:09:13.574Z,17.17
2019-02-14T05:11:43.932Z,20.70
2019-02-14T05:14:25.475Z,18.67
2019-02-14T05:17:07.575Z,15.77
2019-02-14T05:19:49.950Z,13.90
2019-02-14T05:22:32.195Z,15.03
2019-02-14T05:25:14.066Z,13.43
2019-02-14T05:27:56.421Z,14.43
2019-02-14T05:30:38.942Z,17.10
2019-02-14T05:33:21.086Z,13.40
2019-02-14T05:36:03.197Z,13.00
2019-02-14T05:38:45.504Z,13.57
2019-02-14T05:41:27.393Z,18.37
2019-02-14T05:44:10.354Z,17.53
2019-02-14T05:46:52.205Z,13.20
2019-02-14T05:49:34.554Z,15.80
2019-02-14T05:52:16.619Z,15.60
2019-02-14T05:54:47.033Z,12.40
2019-02-14T05:57:36.368Z,17.33
2019-02-14T06:00:18.988Z,15.17
2019-02-14T06:02:49.281Z,11.53
2019-02-14T06:05:32.948Z,12.67
2019-02-14T06:08:15.268Z,12.93
2019-02-14T06:10:57.358Z,13.93
2019-02-14T06:13:39.768Z,13.30
2019-02-14T06:16:23.362Z,11.63
2019-02-14T06:19:06.615Z,10.23
2019-02-14T06:21:48.395Z,17.40
2019-02-14T06:24:30.523Z,17.47
2019-02-14T06:27:13.385Z,19.40
2019-02-14T06:29:55.397Z,17.77
2019-02-14T06:32:37.394Z,14.07
2019-02-14T06:35:19.315Z,17.93
2019-02-14T06:37:49.638Z,17.97
2019-02-14T06:40:31.624Z,17.23
2019-02-14T06:43:13.463Z,16.20
2019-02-14T06:45:55.328Z,16.37
2019-02-14T06:48:37.491Z,17.63
2019-02-14T06:51:07.816Z,25.33
2019-02-14T06:53:49.415Z,29.97
2019-02-14T06:56:31.560Z,20.63
2019-02-14T06:59:13.572Z,16.53
2019-02-14T07:01:55.755Z,15.47
2019-02-14T07:04:37.831Z,16.70
2019-02-14T07:07:19.858Z,21.07
2019-02-14T07:10:02.082Z,16.97
2019-02-14T07:12:44.313Z,14.23
2019-02-14T07:15:26.333Z,13.53
2019-02-14T07:18:09.117Z,13.40
2019-02-14T07:20:51.375Z,14.23
2019-02-14T07:23:33.430Z,15.00
2019-02-14T07:26:15.704Z,14.43
2019-02-14T07:28:57.835Z,14.60
2019-02-14T07:31:40.142Z,12.20
2019-02-14T07:34:22.089Z,14.13
2019-02-14T07:37:04.072Z,14.03
2019-02-14T07:39:46.111Z,14.07
2019-02-14T07:42:28.758Z,14.43
2019-02-14T07:45:11.193Z,13.67
2019-02-14T07:47:53.091Z,18.47
2019-02-14T07:50:35.258Z,15.37
2019-02-14T07:53:17.379Z,17.10
2019-02-14T07:55:59.457Z,16.23
2019-02-14T07:58:41.599Z,16.90
2019-02-14T08:01:23.653Z,54.73
2019-02-14T08:04:05.755Z,16.40
2019-02-14T08:06:36.069Z,16.07
2019-02-14T08:09:25.682Z,13.30
2019-02-14T08:12:07.405Z,14.83
2019-02-14T08:14:49.328Z,15.50
2019-02-14T08:17:31.066Z,15.37
2019-02-14T08:20:13.535Z,17.60
2019-02-14T08:22:56.064Z,16.63
2019-02-14T08:25:37.658Z,16.07
2019-02-14T08:28:20.491Z,15.33
2019-02-14T08:31:02.710Z,13.00
2019-02-14T08:33:45.905Z,16.37
2019-02-14T08:36:27.658Z,14.97
2019-02-14T08:39:09.302Z,15.60
2019-02-14T08:41:51.486Z,15.77
2019-02-14T08:44:33.658Z,18.63
2019-02-14T08:47:15.439Z,14.60
2019-02-14T08:49:57.869Z,19.60
2019-02-14T08:52:40.165Z,14.63
2019-02-14T08:55:22.017Z,20.67
2019-02-14T08:58:04.731Z,16.67
2019-02-14T09:00:47.282Z,15.47
2019-02-14T09:03:29.334Z,16.30
2019-02-14T09:06:11.219Z,15.83
2019-02-14T09:08:53.397Z,14.73
2019-02-14T09:11:35.324Z,17.47
2019-02-14T09:14:17.111Z,15.93
2019-02-14T09:16:58.710Z,19.73
2019-02-14T09:19:40.958Z,28.83
2019-02-14T09:22:23.134Z,20.30
2019-02-14T09:25:03.953Z,17.77
2019-02-14T09:27:46.164Z,16.17
2019-02-14T09:30:28.204Z,16.53
2019-02-14T09:33:10.146Z,17.60
2019-02-14T09:35:51.887Z,17.17
2019-02-14T09:38:35.900Z,18.00
2019-02-14T09:41:45.584Z,14.73
2019-02-14T09:47:19.736Z,18.97
2019-02-14T09:50:01.963Z,18.60
2019-02-14T09:52:43.801Z,16.97
2019-02-14T09:55:26.087Z,12.07
2019-02-14T09:58:09.998Z,15.20
2019-02-14T10:00:52.536Z,13.97
2019-02-14T10:03:35.029Z,14.10
2019-02-14T10:06:17.685Z,13.83
2019-02-14T10:09:00.717Z,13.40
2019-02-14T10:11:44.354Z,16.40
2019-02-14T10:14:26.036Z,17.70
2019-02-14T10:17:07.855Z,17.60
2019-02-14T10:19:50.095Z,17.10
2019-02-14T10:22:31.918Z,17.47
2019-02-14T10:25:13.564Z,16.80
2019-02-14T10:27:55.558Z,18.43
2019-02-14T10:30:40.147Z,20.90
2019-02-14T10:33:22.261Z,23.23
2019-02-14T10:36:04.607Z,29.30
2019-02-14T10:38:46.165Z,20.47
2019-02-14T10:41:29.341Z,23.27
2019-02-14T10:44:11.591Z,36.00
2019-02-14T10:46:54.008Z,20.40
2019-02-14T10:49:36.074Z,20.63
2019-02-14T10:52:18.337Z,18.60
2019-02-14T10:55:00.831Z,18.33
2019-02-14T10:57:42.880Z,16.10
2019-02-14T11:00:25.058Z,15.43
2019-02-14T11:03:07.125Z,17.63
2019-02-14T11:05:49.233Z,20.50
2019-02-14T11:08:32.068Z,21.20
2019-02-14T11:11:15.336Z,22.77
2019-02-14T11:13:57.408Z,21.20
2019-02-14T11:16:39.748Z,19.63
2019-02-14T11:19:24.460Z,21.57
2019-02-14T11:22:07.386Z,25.30
2019-02-14T11:24:48.985Z,23.73
2019-02-14T11:27:30.989Z,29.97
2019-02-14T11:30:12.850Z,35.87
2019-02-14T11:32:56.173Z,44.60
2019-02-14T11:35:38.471Z,36.73
2019-02-14T11:38:20.489Z,44.73
2019-02-14T11:41:02.395Z,41.17
2019-02-14T11:43:43.981Z,35.20
2019-02-14T11:46:26.034Z,34.67
2019-02-14T11:49:09.314Z,34.70
2019-02-14T11:51:51.534Z,30.43
2019-02-14T11:54:33.555Z,31.37
2019-02-14T11:57:15.334Z,29.90
2019-02-14T11:59:57.151Z,29.90
2019-02-14T12:02:39.197Z,29.17
2019-02-14T12:05:21.318Z,28.00
2019-02-14T12:08:03.091Z,32.00
2019-02-14T12:10:45.136Z,29.60
2019-02-14T12:13:27.082Z,26.97
2019-02-14T12:16:09.151Z,31.23
2019-02-14T12:18:51.417Z,28.87
2019-02-14T12:21:33.415Z,27.37
2019-02-14T12:24:15.525Z,30.77
2019-02-14T12:26:57.491Z,27.83
2019-02-14T12:29:39.648Z,26.73
2019-02-14T12:32:22.066Z,26.43
2019-02-14T12:35:03.612Z,24.47
2019-02-14T12:37:45.609Z,23.37
2019-02-14T12:40:27.644Z,22.23
2019-02-14T12:43:10.299Z,21.17
2019-02-14T12:45:40.585Z,16.93
2019-02-14T12:48:22.706Z,18.37
2019-02-14T12:51:04.887Z,20.43
2019-02-14T12:53:47.166Z,22.40
2019-02-14T12:56:28.866Z,19.37
2019-02-14T12:59:11.547Z,20.73
2019-02-14T13:01:52.110Z,18.00
2019-02-14T13:04:34.245Z,20.17
2019-02-14T13:07:16.672Z,27.40
2019-02-14T13:09:59.918Z,21.40
2019-02-14T13:12:43.114Z,22.90
2019-02-14T13:15:25.608Z,18.83
2019-02-14T13:18:07.247Z,23.70
2019-02-14T13:20:49.406Z,21.40
2019-02-14T13:23:31.416Z,26.53
2019-02-14T13:26:13.311Z,21.07
2019-02-14T13:28:43.738Z,19.97
2019-02-14T13:31:33.315Z,25.77
2019-02-14T13:34:14.874Z,20.33
2019-02-14T13:37:01.782Z,26.30
2019-02-14T13:39:40.756Z,25.63
2019-02-14T13:42:22.738Z,26.23
2019-02-14T13:45:05.069Z,25.37
2019-02-14T13:47:47.125Z,24.47
2019-02-14T13:50:29.190Z,22.17
2019-02-14T13:53:11.628Z,27.13
2019-02-14T13:55:53.582Z,25.10
2019-02-14T13:58:37.025Z,20.77
2019-02-14T14:01:18.729Z,24.17
2019-02-14T14:04:00.592Z,26.60
2019-02-14T14:06:43.865Z,25.60
2019-02-14T14:09:25.529Z,22.77
2019-02-14T14:12:07.619Z,27.50
2019-02-14T14:14:49.781Z,25.73
2019-02-14T14:17:31.876Z,25.90
2019-02-14T14:20:13.785Z,23.80
2019-02-14T14:22:55.773Z,25.17
2019-02-14T14:25:37.689Z,23.87
2019-02-14T14:28:20.259Z,24.80
2019-02-14T14:31:02.870Z,24.43
2019-02-14T14:33:45.188Z,25.53
2019-02-14T14:36:27.638Z,30.53
2019-02-14T14:39:09.967Z,28.53
2019-02-14T14:41:40.175Z,26.17
2019-02-14T14:44:28.531Z,26.80
2019-02-14T14:47:13.429Z,25.67
2019-02-14T14:49:56.603Z,20.73
2019-02-14T14:52:38.854Z,28.17
2019-02-14T14:55:21.445Z,23.35
2019-02-14T14:58:03.828Z,20.17
2019-02-14T15:00:46.273Z,23.87
2019-02-14T15:03:28.321Z,20.57
2019-02-14T15:06:10.569Z,25.17
2019-02-14T15:08:52.614Z,19.42
2019-02-14T15:11:34.991Z,22.22
2019-02-14T15:14:05.272Z,19.85
2019-02-14T15:16:47.263Z,21.70
2019-02-14T15:19:29.405Z,21.25
2019-02-14T15:22:11.233Z,23.47
2019-02-14T15:24:53.126Z,28.98
2019-02-14T15:27:35.276Z,27.75
2019-02-14T15:30:17.476Z,25.27
2019-02-14T15:32:59.026Z,23.40
2019-02-14T15:35:41.577Z,28.40
2019-02-14T15:38:23.425Z,28.73
2019-02-14T15:41:05.826Z,28.47
2019-02-14T15:43:47.563Z,24.67
2019-02-14T15:46:29.753Z,25.73
2019-02-14T15:49:15.285Z,27.27
2019-02-14T15:51:57.848Z,24.73
2019-02-14T15:54:39.687Z,23.37
2019-02-14T15:57:21.922Z,25.17
2019-02-14T16:00:04.761Z,23.50
2019-02-14T16:02:48.361Z,24.17
2019-02-14T16:05:31.242Z,28.53
2019-02-14T16:08:13.419Z,25.03
2019-02-14T16:10:55.960Z,27.77
2019-02-14T16:13:38.461Z,25.57
2019-02-14T16:16:22.573Z,27.03
2019-02-14T16:19:04.888Z,23.27
2019-02-14T16:21:46.972Z,28.00
2019-02-14T16:24:29.007Z,25.00
2019-02-14T16:27:13.004Z,28.20
2019-02-14T16:29:55.326Z,25.53
2019-02-14T16:32:38.545Z,23.53
2019-02-14T16:35:29.704Z,27.63
2019-02-14T16:38:14.084Z,26.47
2019-02-14T16:40:55.964Z,23.70
2019-02-14T16:43:38.306Z,28.40
2019-02-14T16:46:20.364Z,25.30
2019-02-14T16:49:02.390Z,25.03
2019-02-14T16:51:44.710Z,23.90
2019-02-14T16:54:27.223Z,25.30
2019-02-14T16:57:08.982Z,29.80
2019-02-14T16:59:50.912Z,27.97
2019-02-14T17:02:32.966Z,26.23
2019-02-14T17:05:15.069Z,29.57
2019-02-14T17:07:57.057Z,26.33
2019-02-14T17:10:39.286Z,31.33
2019-02-14T17:13:21.899Z,26.17
2019-02-14T17:16:07.181Z,30.20
2019-02-14T17:18:50.973Z,26.50
2019-02-14T17:21:34.890Z,21.83
2019-02-14T17:24:21.498Z,23.33
2019-02-14T17:27:05.189Z,31.13
2019-02-14T17:29:48.587Z,29.60
2019-02-14T17:32:30.529Z,25.73
2019-02-14T17:35:12.849Z,28.57
2019-02-14T17:37:54.939Z,25.30
2019-02-14T17:40:45.598Z,28.97
2019-02-14T17:43:21.209Z,26.37
2019-02-14T17:46:03.353Z,27.00
2019-02-14T17:48:45.547Z,30.20
2019-02-14T17:51:27.907Z,33.10
2019-02-14T17:54:09.702Z,24.27
2019-02-14T17:56:50.172Z,22.43
2019-02-14T17:59:32.487Z,23.73
2019-02-14T18:02:15.572Z,23.47
2019-02-14T18:05:02.178Z,25.90
2019-02-14T18:07:46.087Z,29.50
2019-02-14T18:10:28.857Z,28.33
2019-02-14T18:13:17.676Z,27.53
2019-02-14T18:15:59.979Z,36.00
2019-02-14T18:18:34.567Z,29.20
2019-02-14T18:21:24.615Z,31.53
2019-02-14T18:24:07.205Z,30.90
2019-02-14T18:26:49.398Z,26.23
2019-02-14T18:29:31.691Z,27.90
2019-02-14T18:32:16.475Z,25.30
2019-02-14T18:34:59.393Z,24.83
2019-02-14T18:37:42.674Z,23.73
2019-02-14T18:40:25.583Z,23.87
2019-02-14T18:43:08.098Z,31.10
2019-02-14T18:45:50.414Z,26.27
2019-02-14T18:48:33.119Z,24.20
2019-02-14T18:51:15.807Z,22.53
2019-02-14T18:53:57.818Z,23.83
2019-02-14T18:56:40.518Z,26.93
2019-02-14T18:59:23.034Z,22.40
2019-02-14T19:02:07.185Z,34.60
2019-02-14T19:04:51.075Z,35.43
2019-02-14T19:07:33.538Z,33.83
2019-02-14T19:10:15.460Z,34.03
2019-02-14T19:13:19.000Z,34.50
2019-02-14T19:15:45.697Z,30.83
2019-02-14T19:18:27.515Z,34.47
2019-02-14T19:21:10.478Z,36.80
2019-02-14T19:23:56.723Z,38.17
2019-02-14T19:26:43.391Z,30.30
2019-02-14T19:29:31.644Z,31.87
2019-02-14T19:32:33.217Z,116.80
2019-02-14T19:38:47.242Z,47.00
2019-02-14T19:41:31.190Z,37.27
2019-02-14T19:50:10.017Z,31.50
2019-02-14T19:56:04.030Z,25.60
2019-02-14T19:58:46.358Z,27.43
2019-02-14T20:01:28.434Z,26.80
2019-02-14T20:04:11.444Z,28.13
2019-02-14T20:06:53.551Z,30.23
2019-02-14T20:09:35.986Z,30.87
2019-02-14T20:12:19.774Z,27.33
2019-02-14T20:15:05.104Z,30.07
2019-02-14T20:17:48.960Z,30.67
2019-02-14T20:20:33.072Z,35.27
2019-02-14T20:23:17.152Z,37.07
2019-02-14T20:26:03.108Z,49.60
2019-02-14T20:28:48.081Z,40.03
2019-02-14T20:31:32.321Z,40.90
2019-02-14T20:34:17.987Z,36.87
2019-02-14T20:37:10.600Z,31.37
2019-02-14T20:40:12.969Z,29.37
2019-02-14T20:46:05.615Z,24.33
2019-02-14T20:48:48.628Z,24.53
2019-02-14T20:51:38.337Z,28.67
2019-02-14T20:54:16.181Z,29.13
2019-02-14T20:57:00.130Z,27.13
2019-02-14T20:59:42.473Z,22.27
2019-02-14T21:02:25.413Z,27.77
2019-02-14T21:05:07.702Z,27.80
2019-02-14T21:07:52.774Z,23.77
2019-02-14T21:10:38.449Z,27.57
2019-02-14T21:13:41.629Z,30.57
2019-02-14T21:16:23.986Z,47.53
2019-02-14T21:19:07.988Z,38.43
2019-02-14T21:21:50.413Z,62.70
2019-02-14T21:24:32.671Z,47.43
2019-02-14T21:27:15.597Z,52.10
2019-02-14T21:29:58.345Z,45.40
2019-02-14T21:32:40.529Z,41.37
2019-02-14T21:35:22.963Z,36.20
2019-02-14T21:38:06.497Z,33.63
2019-02-14T21:40:51.292Z,38.23
2019-02-14T21:43:42.195Z,41.83
2019-02-14T21:46:49.931Z,34.90
2019-02-14T21:55:16.786Z,34.00
